Aérodrome :
LOGIN :

S'inscrire | Disclaimer

   EN    FR    IT 

 










Légende :    VFR   VFR Marginal   IFR   IFR Intensif   IFR Très Intensif
Visi : 
Plafond : 
>= 8 km
>= 3000ft
5 à 8 km
1000 à 3000 ft
1500m à 5 km
500 à 1000 ft
800 à 1500m
200 à 500 ft
< 800m
< 200 ft
Symboles :   Orages  Brouillard  Fortes neiges  Fortes précipitations  Vent > 20 kt
SIGMETs :   Divers  Orages  Givrage  Turbulence  Onde Orograph.  Cendres Volcan.







- Altitude de l'aérodrome : -15 ft
- Code IATA : RTM


EHRD - Rotterdam Zestienhoven

DERNIER METAR :
  • 200755Z AUTO 09004KT 9999 NCD M06/M08 Q1016 NOSIG

METARs EXPIRÉS :
  • 200725Z AUTO 09004KT 9999 NCD M06/M07 Q1016 NOSIG
  • 200655Z AUTO 06004KT 9999 NCD M05/M07 Q1015 NOSIG
  • 200625Z AUTO 07004KT 9999 NCD M05/M07 Q1015 NOSIG
  • 200555Z AUTO 09004KT 9999 NCD M05/M07 Q1014 NOSIG
  • 200525Z AUTO 09004KT 9999 NCD M05/M06 Q1014 NOSIG

TAF TAF EHRD
Valide du 20 à 06h jusqu'au 21 à 12h UTC


200449Z 2006/2112 10007KT CAVOK
BECMG 2100/2103 7000
PROB30
TEMPO 2103/2106 1200 BCFG
Pas de NOTAMs connus pour ce terrain.



MET'MAP, la Météo Aéronautique d'un coup d'oeil ! - Copyright ORBIFLY Décembre 2007 - Disclaimer

ORBIFLY MET'MAP TEAM :

Programmation & Développement : Alexandra Zaïnal
Conception & Développement : Baudouin d'Aumeries
Co-Programmation & Développement : Marc-Olivier Méhu
Soutien technique & logistique : Manuel Goepfert

Contact : metmap@orbifly.com




SOURCES & CREDITS :

   NOAA